createdAt,value
2023-02-04T00:00:17.057Z,9.10
2023-02-04T00:02:46.313Z,9.00
2023-02-04T00:05:14.639Z,9.00
2023-02-04T00:07:42.501Z,9.00
2023-02-04T00:10:11.337Z,8.90
2023-02-04T00:12:39.214Z,8.90
2023-02-04T00:15:07.639Z,9.00
2023-02-04T00:17:35.717Z,9.00
2023-02-04T00:20:05.405Z,8.90
2023-02-04T00:22:33.232Z,8.90
2023-02-04T00:25:01.113Z,8.90
2023-02-04T00:27:29.078Z,9.10
2023-02-04T00:29:57.434Z,9.30
2023-02-04T00:32:25.328Z,9.30
2023-02-04T00:34:53.780Z,9.20
2023-02-04T00:37:23.027Z,9.00
2023-02-04T00:39:51.062Z,8.90
2023-02-04T00:42:18.953Z,8.80
2023-02-04T00:44:46.759Z,9.00
2023-02-04T00:47:14.668Z,9.20
2023-02-04T00:49:42.672Z,9.10
2023-02-04T00:52:10.499Z,9.20
2023-02-04T00:54:39.668Z,9.20
2023-02-04T00:57:07.472Z,9.20
2023-02-04T00:59:35.309Z,9.00
2023-02-04T01:02:03.149Z,9.00
2023-02-04T01:04:31.194Z,8.90
2023-02-04T01:06:59.318Z,8.70
2023-02-04T01:09:27.286Z,8.60
2023-02-04T01:11:56.475Z,8.60
2023-02-04T01:14:24.341Z,8.40
2023-02-04T01:16:52.224Z,8.50
2023-02-04T01:19:20.982Z,8.40
2023-02-04T01:21:48.797Z,8.40
2023-02-04T01:24:16.662Z,8.40
2023-02-04T01:26:44.538Z,8.50
2023-02-04T01:29:13.797Z,8.60
2023-02-04T01:31:41.660Z,8.70
2023-02-04T01:34:09.476Z,8.60
2023-02-04T01:36:37.302Z,8.60
2023-02-04T01:39:05.237Z,8.60
2023-02-04T01:41:33.817Z,8.60
2023-02-04T01:44:01.687Z,8.50
2023-02-04T01:46:31.035Z,8.60
2023-02-04T01:48:59.189Z,8.60
2023-02-04T01:51:30.352Z,8.60
2023-02-04T01:53:58.361Z,8.60
2023-02-04T01:56:28.482Z,8.60
2023-02-04T01:58:58.360Z,8.60
2023-02-04T02:01:38.825Z,8.60
2023-02-04T02:04:07.385Z,8.50
2023-02-04T02:06:35.726Z,8.50
2023-02-04T02:09:03.854Z,8.60
2023-02-04T02:11:31.977Z,8.50
2023-02-04T02:14:00.038Z,8.60
2023-02-04T02:16:28.054Z,8.80
2023-02-04T02:18:57.744Z,8.80
2023-02-04T02:21:32.433Z,9.00
2023-02-04T02:24:01.938Z,9.10
2023-02-04T02:26:29.911Z,8.80
2023-02-04T02:28:57.709Z,8.80
2023-02-04T02:31:26.016Z,8.80
2023-02-04T02:33:53.915Z,8.70
2023-02-04T02:36:23.604Z,8.80
2023-02-04T02:38:51.503Z,8.60
2023-02-04T02:41:20.691Z,8.60
2023-02-04T02:43:48.503Z,8.80
2023-02-04T02:46:16.377Z,8.80
2023-02-04T02:48:44.305Z,8.70
2023-02-04T02:51:12.273Z,8.70
2023-02-04T02:53:40.133Z,8.90
2023-02-04T02:56:08.338Z,8.60
2023-02-04T02:58:37.483Z,8.60
2023-02-04T03:01:08.191Z,8.50
2023-02-04T03:03:38.573Z,8.50
2023-02-04T03:06:10.046Z,8.60
2023-02-04T03:08:38.381Z,8.50
2023-02-04T03:11:06.961Z,8.30
2023-02-04T03:13:35.054Z,8.30
2023-02-04T03:16:04.918Z,8.30
2023-02-04T03:18:32.949Z,8.40
2023-02-04T03:21:01.048Z,8.40
2023-02-04T03:23:29.114Z,8.20
2023-02-04T03:25:57.117Z,8.10
2023-02-04T03:28:24.979Z,8.30
2023-02-04T03:30:55.901Z,8.20
2023-02-04T03:33:28.993Z,8.10
2023-02-04T03:35:56.804Z,8.10
2023-02-04T03:38:24.698Z,8.10
2023-02-04T03:40:52.552Z,8.10
2023-02-04T03:43:20.374Z,8.00
2023-02-04T03:45:48.710Z,8.10
2023-02-04T03:48:16.529Z,8.20
2023-02-04T03:50:45.671Z,8.00
2023-02-04T03:53:13.591Z,7.90
2023-02-04T03:55:41.439Z,7.80
2023-02-04T03:58:10.341Z,8.00
2023-02-04T04:00:38.414Z,8.10
2023-02-04T04:03:06.277Z,8.10
2023-02-04T04:05:34.163Z,8.20
2023-02-04T04:08:03.455Z,8.30
2023-02-04T04:10:31.611Z,8.00
2023-02-04T04:12:59.611Z,8.00
2023-02-04T04:15:27.491Z,7.80
2023-02-04T04:17:55.293Z,7.90
2023-02-04T04:20:25.362Z,7.90
2023-02-04T04:22:53.599Z,7.90
2023-02-04T04:25:22.767Z,7.90
2023-02-04T04:27:50.589Z,8.00
2023-02-04T04:30:19.011Z,7.90
2023-02-04T04:32:47.094Z,7.90
2023-02-04T04:35:15.020Z,8.00
2023-02-04T04:37:42.821Z,8.20
2023-02-04T04:40:12.531Z,8.50
2023-02-04T04:42:41.721Z,8.60
2023-02-04T04:45:11.338Z,8.60
2023-02-04T04:47:39.425Z,8.50
2023-02-04T04:50:07.829Z,8.50
2023-02-04T04:52:35.698Z,8.60
2023-02-04T04:55:03.759Z,8.70
2023-02-04T04:57:31.593Z,8.90
2023-02-04T05:00:00.736Z,8.80
2023-02-04T05:02:29.113Z,8.70
2023-02-04T05:04:56.996Z,8.40
2023-02-04T05:07:24.882Z,8.40
2023-02-04T05:09:52.735Z,8.30
2023-02-04T05:12:20.552Z,8.20
2023-02-04T05:14:48.346Z,8.20
2023-02-04T05:17:17.504Z,8.10
2023-02-04T05:19:45.344Z,8.10
2023-02-04T05:22:13.221Z,8.10
2023-02-04T05:24:41.042Z,8.10
2023-02-04T05:27:08.843Z,8.30
2023-02-04T05:29:36.669Z,8.30
2023-02-04T05:32:04.751Z,8.30
2023-02-04T05:34:33.945Z,8.50
2023-02-04T05:37:01.816Z,8.50
2023-02-04T05:39:29.872Z,8.70
2023-02-04T05:41:57.766Z,8.80
2023-02-04T05:44:27.433Z,8.90
2023-02-04T05:46:55.486Z,8.80
2023-02-04T05:49:23.786Z,8.80
2023-02-04T05:51:53.010Z,8.90
2023-02-04T05:54:20.904Z,8.90
2023-02-04T05:56:49.042Z,8.90
2023-02-04T05:59:16.871Z,8.90
2023-02-04T06:01:44.769Z,8.80
2023-02-04T06:04:12.609Z,8.90
2023-02-04T06:06:40.425Z,8.80
2023-02-04T06:09:09.659Z,8.60
2023-02-04T06:11:37.638Z,8.60
2023-02-04T06:14:05.478Z,8.70
2023-02-04T06:16:33.338Z,8.60
2023-02-04T06:19:01.158Z,8.50
2023-02-04T06:21:28.983Z,8.60
2023-02-04T06:23:56.833Z,8.70
2023-02-04T06:26:26.053Z,8.50
2023-02-04T06:28:53.897Z,8.40
2023-02-04T06:31:21.779Z,8.40
2023-02-04T06:33:49.665Z,8.30
2023-02-04T06:36:17.473Z,8.50
2023-02-04T06:38:45.332Z,8.30
2023-02-04T06:41:13.193Z,8.30
2023-02-04T06:43:42.393Z,8.40
2023-02-04T06:46:10.247Z,8.40
2023-02-04T06:48:38.052Z,8.50
2023-02-04T06:51:06.068Z,8.60
2023-02-04T06:53:34.178Z,8.70
2023-02-04T06:56:01.992Z,8.70
2023-02-04T06:58:29.873Z,8.80
2023-02-04T07:00:59.067Z,8.80
2023-02-04T07:03:26.862Z,8.80
2023-02-04T07:05:54.920Z,8.70
2023-02-04T07:08:22.886Z,8.70
2023-02-04T07:10:50.704Z,8.60
2023-02-04T07:13:18.523Z,8.60
2023-02-04T07:15:46.676Z,8.70
2023-02-04T07:18:16.236Z,8.70
2023-02-04T07:20:44.040Z,8.50
2023-02-04T07:23:11.907Z,8.60
2023-02-04T07:25:39.833Z,8.60
2023-02-04T07:28:07.752Z,8.60
2023-02-04T07:30:36.056Z,8.60
2023-02-04T07:33:03.991Z,8.70
2023-02-04T07:35:33.114Z,8.70
2023-02-04T07:38:00.925Z,8.80
2023-02-04T07:40:28.925Z,8.80
2023-02-04T07:42:56.928Z,8.90
2023-02-04T07:45:25.007Z,9.00
2023-02-04T07:47:52.808Z,8.60
2023-02-04T07:50:20.581Z,8.50
2023-02-04T07:52:49.769Z,8.50
2023-02-04T07:55:18.175Z,8.30
2023-02-04T07:57:45.965Z,8.40
2023-02-04T08:00:16.318Z,8.30
2023-02-04T08:02:44.263Z,8.20
2023-02-04T08:05:12.646Z,8.20
2023-02-04T08:07:40.730Z,8.30
2023-02-04T08:10:11.482Z,8.40
2023-02-04T08:12:39.510Z,8.30
2023-02-04T08:15:08.708Z,8.30
2023-02-04T08:17:37.068Z,8.40
2023-02-04T08:20:05.268Z,8.60
2023-02-04T08:22:34.034Z,8.80
2023-02-04T08:25:01.844Z,9.00
2023-02-04T08:27:30.981Z,9.20
2023-02-04T08:29:58.805Z,9.40
2023-02-04T08:32:27.402Z,9.40
2023-02-04T08:34:55.181Z,9.40
2023-02-04T08:37:22.971Z,9.50
2023-02-04T08:39:50.819Z,9.40
2023-02-04T08:42:18.644Z,9.30
2023-02-04T08:44:47.961Z,9.10
2023-02-04T08:47:16.036Z,9.00
2023-02-04T08:49:43.831Z,9.30
2023-02-04T08:52:11.635Z,9.30
2023-02-04T08:54:39.479Z,9.20
2023-02-04T08:57:07.379Z,9.20
2023-02-04T08:59:35.196Z,9.20
2023-02-04T09:02:04.574Z,9.00
2023-02-04T09:04:32.421Z,8.90
2023-02-04T09:07:00.253Z,9.00
2023-02-04T09:09:28.031Z,9.10
2023-02-04T09:11:55.868Z,9.20
2023-02-04T09:14:23.666Z,9.10
2023-02-04T09:16:51.461Z,9.00
2023-02-04T09:19:25.155Z,9.00
2023-02-04T09:21:53.110Z,9.20
2023-02-04T09:24:23.459Z,9.30
2023-02-04T09:26:51.781Z,9.00
2023-02-04T09:29:19.603Z,9.00
2023-02-04T09:31:47.578Z,9.10
2023-02-04T09:34:15.441Z,9.30
2023-02-04T09:36:44.593Z,9.20
2023-02-04T09:39:12.393Z,9.20
2023-02-04T09:41:41.213Z,9.20
2023-02-04T09:44:15.650Z,9.20
2023-02-04T09:46:48.038Z,9.00
2023-02-04T09:49:16.059Z,8.90
2023-02-04T09:51:47.603Z,8.90
2023-02-04T09:54:18.029Z,8.90
2023-02-04T09:56:46.103Z,9.00
2023-02-04T09:59:15.538Z,9.20
2023-02-04T10:01:43.382Z,9.30
2023-02-04T10:04:14.067Z,9.50
2023-02-04T10:06:43.083Z,9.20
2023-02-04T10:09:13.242Z,8.90
2023-02-04T10:11:42.723Z,8.90
2023-02-04T10:14:15.390Z,9.00
2023-02-04T10:16:45.039Z,9.20
2023-02-04T10:19:15.825Z,9.10
2023-02-04T10:21:45.885Z,9.20
2023-02-04T10:24:17.763Z,9.20
2023-02-04T10:26:46.329Z,9.30
2023-02-04T10:29:16.022Z,9.30
2023-02-04T10:31:45.353Z,9.40
2023-02-04T10:34:18.426Z,9.60
2023-02-04T10:36:49.420Z,9.70
2023-02-04T10:39:20.279Z,9.80
2023-02-04T10:41:50.518Z,9.80
2023-02-04T10:44:20.084Z,9.90
2023-02-04T10:46:48.272Z,9.90
2023-02-04T10:49:22.646Z,10.00
2023-02-04T10:51:52.699Z,10.00
2023-02-04T10:54:30.798Z,9.90
2023-02-04T10:57:00.807Z,10.00
2023-02-04T10:59:29.287Z,9.90
2023-02-04T11:01:58.619Z,9.90
2023-02-04T11:04:28.671Z,10.10
2023-02-04T11:06:56.552Z,10.20
2023-02-04T11:09:25.787Z,10.10
2023-02-04T11:11:53.644Z,9.90
2023-02-04T11:14:28.368Z,9.70
2023-02-04T11:17:00.483Z,9.60
2023-02-04T11:19:35.649Z,9.30
2023-02-04T11:22:20.651Z,8.90
2023-02-04T11:24:50.396Z,8.70
2023-02-04T11:27:27.972Z,8.90
2023-02-04T11:30:06.710Z,9.60
2023-02-04T11:32:37.898Z,10.40
2023-02-04T11:35:24.265Z,11.00
2023-02-04T11:37:52.203Z,11.70
2023-02-04T11:40:30.935Z,12.20
2023-02-04T11:43:04.760Z,12.60
2023-02-04T11:45:35.330Z,12.90
2023-02-04T11:48:05.345Z,13.10
2023-02-04T11:50:35.481Z,13.20
2023-02-04T11:53:03.479Z,13.00
2023-02-04T11:55:35.958Z,12.40
2023-02-04T11:58:05.415Z,12.20
2023-02-04T12:00:34.453Z,12.10
2023-02-04T12:03:06.182Z,12.40
2023-02-04T12:05:41.674Z,12.70
2023-02-04T12:08:15.246Z,13.20
2023-02-04T12:10:51.563Z,13.30
2023-02-04T12:13:24.106Z,13.40
2023-02-04T12:15:59.269Z,13.70
2023-02-04T12:18:28.728Z,14.00
2023-02-04T12:20:57.317Z,14.10
2023-02-04T12:23:25.858Z,14.00
2023-02-04T12:25:55.389Z,13.90
2023-02-04T12:28:24.039Z,14.40
2023-02-04T12:30:52.515Z,14.50
2023-02-04T12:33:20.484Z,14.60
2023-02-04T12:35:48.276Z,14.20
2023-02-04T12:38:16.144Z,13.60
2023-02-04T12:40:44.570Z,13.70
2023-02-04T12:43:14.166Z,13.50
2023-02-04T12:45:45.617Z,13.10
2023-02-04T12:48:13.809Z,12.80
2023-02-04T12:50:41.715Z,12.80
2023-02-04T12:53:09.772Z,13.00
2023-02-04T12:55:37.735Z,12.50
2023-02-04T12:58:05.618Z,12.80
2023-02-04T13:00:34.878Z,12.60
2023-02-04T13:03:02.929Z,12.40
2023-02-04T13:05:31.135Z,11.90
2023-02-04T13:07:59.263Z,11.50
2023-02-04T13:10:27.062Z,11.00
2023-02-04T13:12:54.865Z,10.70
2023-02-04T13:15:23.014Z,10.50
2023-02-04T13:17:52.187Z,10.40
2023-02-04T13:20:20.595Z,10.30
2023-02-04T13:22:48.736Z,10.30
2023-02-04T13:25:16.696Z,10.10
2023-02-04T13:27:44.549Z,10.40
2023-02-04T13:30:15.293Z,10.60
2023-02-04T13:32:43.466Z,10.60
2023-02-04T13:35:12.716Z,10.50
2023-02-04T13:37:40.548Z,10.70
2023-02-04T13:40:09.791Z,10.90
2023-02-04T13:42:37.689Z,10.80
2023-02-04T13:45:07.653Z,10.80
2023-02-04T13:47:35.553Z,10.60
2023-02-04T13:50:03.357Z,10.50
2023-02-04T13:52:33.480Z,10.30
2023-02-04T13:55:01.904Z,10.30
2023-02-04T13:57:30.877Z,10.20
2023-02-04T13:59:58.729Z,10.40
2023-02-04T14:02:26.566Z,10.40
2023-02-04T14:04:54.398Z,10.60
2023-02-04T14:07:22.211Z,10.70
2023-02-04T14:09:51.443Z,10.60
2023-02-04T14:12:19.258Z,10.70
2023-02-04T14:14:47.164Z,10.60
2023-02-04T14:17:14.974Z,10.50
2023-02-04T14:19:42.793Z,10.40
2023-02-04T14:22:12.908Z,10.30
2023-02-04T14:24:42.566Z,10.20
2023-02-04T14:27:12.464Z,10.10
2023-02-04T14:29:40.428Z,10.00
2023-02-04T14:32:08.383Z,10.00
2023-02-04T14:34:36.244Z,10.10
2023-02-04T14:37:04.053Z,10.10
2023-02-04T14:39:31.866Z,10.20
2023-02-04T14:41:59.693Z,10.20
2023-02-04T14:44:28.833Z,10.30
2023-02-04T14:46:56.643Z,10.30
2023-02-04T14:49:24.500Z,10.40
2023-02-04T14:51:52.340Z,10.60
2023-02-04T14:54:20.108Z,10.70
2023-02-04T14:56:47.992Z,10.60
2023-02-04T14:59:15.822Z,10.50
2023-02-04T15:01:46.136Z,10.30
2023-02-04T15:04:14.019Z,10.10
2023-02-04T15:06:41.871Z,10.20
2023-02-04T15:09:09.672Z,10.20
2023-02-04T15:11:37.528Z,10.10
2023-02-04T15:14:05.724Z,10.10
2023-02-04T15:16:34.008Z,10.00
2023-02-04T15:19:03.285Z,10.00
2023-02-04T15:21:31.223Z,9.80
2023-02-04T15:23:59.076Z,9.70
2023-02-04T15:26:26.885Z,9.50
2023-02-04T15:28:56.156Z,9.30
2023-02-04T15:31:24.343Z,9.20
2023-02-04T15:33:52.522Z,9.00
2023-02-04T15:36:21.698Z,8.90
2023-02-04T15:38:49.636Z,9.00
2023-02-04T15:41:17.606Z,8.90
2023-02-04T15:43:45.528Z,8.80
2023-02-04T15:46:13.340Z,8.70
2023-02-04T15:48:41.250Z,8.80
2023-02-04T15:51:09.058Z,8.80
2023-02-04T15:53:38.194Z,8.80
2023-02-04T15:56:06.791Z,8.70
2023-02-04T15:58:34.643Z,8.60
2023-02-04T16:01:02.475Z,8.70
2023-02-04T16:03:30.306Z,8.70
2023-02-04T16:05:58.101Z,8.70
2023-02-04T16:08:25.946Z,8.70
2023-02-04T16:10:55.129Z,8.80
2023-02-04T16:13:23.038Z,8.80
2023-02-04T16:15:50.884Z,8.90
2023-02-04T16:18:18.696Z,8.70
2023-02-04T16:20:46.509Z,8.70
2023-02-04T16:23:14.289Z,8.60
2023-02-04T16:25:42.158Z,8.70
2023-02-04T16:28:11.381Z,8.60
2023-02-04T16:30:39.662Z,8.60
2023-02-04T16:33:07.805Z,8.70
2023-02-04T16:35:57.523Z,9.10
2023-02-04T16:38:25.760Z,10.20
2023-02-04T16:40:53.605Z,10.20
2023-02-04T16:43:23.200Z,10.60
2023-02-04T16:45:51.063Z,10.80
2023-02-04T16:48:18.870Z,10.90
2023-02-04T16:50:46.643Z,10.70
2023-02-04T16:53:16.166Z,10.50
2023-02-04T16:55:44.819Z,10.10
2023-02-04T16:58:13.398Z,9.80
2023-02-04T17:00:44.191Z,9.40
2023-02-04T17:03:13.571Z,9.10
2023-02-04T17:05:41.694Z,8.80
2023-02-04T17:08:11.130Z,8.60
2023-02-04T17:10:57.759Z,8.50
2023-02-04T17:13:25.581Z,8.40
2023-02-04T17:16:00.296Z,8.30
2023-02-04T17:18:29.508Z,8.30
2023-02-04T17:20:57.495Z,8.20
2023-02-04T17:23:26.717Z,8.20
2023-02-04T17:25:54.603Z,8.10
2023-02-04T17:28:23.218Z,8.00
2023-02-04T17:30:51.238Z,7.80
2023-02-04T17:33:20.649Z,7.60
2023-02-04T17:35:48.593Z,7.60
2023-02-04T17:38:16.420Z,7.60
2023-02-04T17:40:44.291Z,7.50
2023-02-04T17:43:12.129Z,7.40
2023-02-04T17:45:40.143Z,7.30
2023-02-04T17:48:07.944Z,7.30
2023-02-04T17:50:39.890Z,7.20
2023-02-04T17:53:08.561Z,7.20
2023-02-04T17:55:38.085Z,7.10
2023-02-04T17:58:13.616Z,7.10
2023-02-04T18:00:42.383Z,7.10
2023-02-04T18:03:13.505Z,7.10
2023-02-04T18:05:46.494Z,7.20
2023-02-04T18:08:16.700Z,7.10
2023-02-04T18:10:46.181Z,7.20
2023-02-04T18:13:16.253Z,7.10
2023-02-04T18:15:47.241Z,7.10
2023-02-04T18:18:24.061Z,7.00
2023-02-04T18:20:59.336Z,7.00
2023-02-04T18:23:29.864Z,7.00
2023-02-04T18:26:02.672Z,6.90
2023-02-04T18:28:30.547Z,6.90
2023-02-04T18:31:01.079Z,6.90
2023-02-04T18:33:29.043Z,6.90
2023-02-04T18:36:02.011Z,6.90
2023-02-04T18:38:34.213Z,6.90
2023-02-04T18:41:14.046Z,6.90
2023-02-04T18:43:41.973Z,6.90
2023-02-04T18:46:23.044Z,7.00
2023-02-04T18:49:07.637Z,6.90
2023-02-04T18:51:41.495Z,6.90
2023-02-04T18:54:31.327Z,6.90
2023-02-04T18:57:29.020Z,6.80
2023-02-04T19:00:32.034Z,6.80
2023-02-04T19:03:01.769Z,6.80
2023-02-04T19:05:34.831Z,6.70
2023-02-04T19:08:22.080Z,6.70
2023-02-04T19:10:51.430Z,6.80
2023-02-04T19:13:22.096Z,6.80
2023-02-04T19:15:59.248Z,6.90
2023-02-04T19:18:29.670Z,6.90
2023-02-04T19:21:02.269Z,6.90
2023-02-04T19:23:37.550Z,6.90
2023-02-04T19:26:28.409Z,7.00
2023-02-04T19:28:56.436Z,6.90
2023-02-04T19:31:26.972Z,6.90
2023-02-04T19:33:55.349Z,6.90
2023-02-04T19:36:34.969Z,6.80
2023-02-04T19:39:14.374Z,6.80
2023-02-04T19:41:49.096Z,6.80
2023-02-04T19:44:41.713Z,6.80
2023-02-04T19:47:26.054Z,6.80
2023-02-04T19:50:01.434Z,6.80
2023-02-04T19:52:34.688Z,6.80
2023-02-04T19:55:25.838Z,6.60
2023-02-04T19:57:56.124Z,6.50
2023-02-04T20:00:58.910Z,6.50
2023-02-04T20:03:31.304Z,6.40
2023-02-04T20:06:02.718Z,6.40
2023-02-04T20:08:46.785Z,6.30
2023-02-04T20:11:46.724Z,6.10
2023-02-04T20:14:41.378Z,6.00
2023-02-04T20:17:24.590Z,6.00
2023-02-04T20:19:52.774Z,5.90
2023-02-04T20:22:40.946Z,5.90
2023-02-04T20:25:37.506Z,5.90
2023-02-04T20:28:42.660Z,5.90
2023-02-04T20:31:25.493Z,6.00
2023-02-04T20:33:55.024Z,6.00
2023-02-04T20:36:40.716Z,6.00
2023-02-04T20:39:39.034Z,5.80
2023-02-04T20:42:30.958Z,5.90
2023-02-04T20:45:13.617Z,5.90
2023-02-04T20:47:41.530Z,5.80
2023-02-04T20:50:42.005Z,5.80
2023-02-04T20:53:22.931Z,5.80
2023-02-04T20:55:53.494Z,5.70
2023-02-04T20:58:23.573Z,5.70
2023-02-04T21:00:54.357Z,5.70
2023-02-04T21:03:25.573Z,5.60
2023-02-04T21:05:54.686Z,5.60
2023-02-04T21:08:28.912Z,5.60
2023-02-04T21:10:57.397Z,5.60
2023-02-04T21:13:25.768Z,5.60
2023-02-04T21:15:55.484Z,5.50
2023-02-04T21:18:23.500Z,5.40
2023-02-04T21:20:51.322Z,5.40
2023-02-04T21:23:19.540Z,5.30
2023-02-04T21:25:47.372Z,5.30
2023-02-04T21:28:15.397Z,5.30
2023-02-04T21:30:43.363Z,5.20
2023-02-04T21:33:12.623Z,5.20
2023-02-04T21:35:40.959Z,5.20
2023-02-04T21:38:09.068Z,5.20
2023-02-04T21:40:38.553Z,5.20
2023-02-04T21:43:08.279Z,5.30
2023-02-04T21:45:37.537Z,5.30
2023-02-04T21:48:05.812Z,5.30
2023-02-04T21:50:36.256Z,5.30
2023-02-04T21:53:04.105Z,5.30
2023-02-04T21:55:32.402Z,5.50
2023-02-04T21:58:00.410Z,5.70
2023-02-04T22:00:28.516Z,6.10
2023-02-04T22:02:56.656Z,6.20
2023-02-04T22:05:25.383Z,6.40
2023-02-04T22:07:54.822Z,6.70
2023-02-04T22:10:24.564Z,6.70
2023-02-04T22:12:52.802Z,6.80
2023-02-04T22:15:22.575Z,6.80
2023-02-04T22:17:51.427Z,6.80
2023-02-04T22:20:20.338Z,6.80
2023-02-04T22:22:49.013Z,6.80
2023-02-04T22:25:20.105Z,6.50
2023-02-04T22:27:48.270Z,6.60
2023-02-04T22:30:17.642Z,6.70
2023-02-04T22:32:45.627Z,6.80
2023-02-04T22:35:13.866Z,6.90
2023-02-04T22:37:42.838Z,7.00
2023-02-04T22:40:12.525Z,7.00
2023-02-04T22:42:41.974Z,7.10
2023-02-04T22:45:11.177Z,7.20
2023-02-04T22:47:39.137Z,7.10
2023-02-04T22:50:07.927Z,7.00
2023-02-04T22:52:35.718Z,6.90
2023-02-04T22:55:03.859Z,6.70
2023-02-04T22:57:31.694Z,6.70
2023-02-04T23:00:00.856Z,6.50
2023-02-04T23:02:28.666Z,6.30
2023-02-04T23:04:56.463Z,6.40
2023-02-04T23:07:24.263Z,6.20
2023-02-04T23:09:52.124Z,6.30
2023-02-04T23:12:20.286Z,6.20
2023-02-04T23:14:49.699Z,5.90
2023-02-04T23:17:19.545Z,5.70
2023-02-04T23:19:47.377Z,5.50
2023-02-04T23:22:16.502Z,5.60
2023-02-04T23:24:44.947Z,5.60
2023-02-04T23:27:13.286Z,5.70
2023-02-04T23:29:41.594Z,5.80
2023-02-04T23:32:09.994Z,5.90
2023-02-04T23:34:39.264Z,6.00
2023-02-04T23:37:07.092Z,6.20
2023-02-04T23:39:34.974Z,6.20
2023-02-04T23:42:03.316Z,6.40
2023-02-04T23:44:31.208Z,6.20
2023-02-04T23:46:59.041Z,6.40
2023-02-04T23:49:26.882Z,6.50
2023-02-04T23:51:55.993Z,6.60
2023-02-04T23:54:24.494Z,6.70
2023-02-04T23:56:53.418Z,6.80
2023-02-04T23:59:21.201Z,6.80
